createdAt,value
2023-02-22T00:02:25.827Z,66.80
2023-02-22T00:04:58.350Z,65.96
2023-02-22T00:07:34.202Z,65.76
2023-02-22T00:10:09.658Z,67.37
2023-02-22T00:12:46.100Z,67.00
2023-02-22T00:15:19.601Z,67.14
2023-02-22T00:17:52.361Z,66.69
2023-02-22T00:20:25.275Z,66.20
2023-02-22T00:23:21.956Z,66.13
2023-02-22T00:25:54.355Z,66.56
2023-02-22T00:28:30.926Z,66.25
2023-02-22T00:31:04.258Z,66.23
2023-02-22T00:33:37.281Z,66.39
2023-02-22T00:36:15.128Z,65.82
2023-02-22T00:38:54.974Z,65.86
2023-02-22T00:41:26.406Z,65.94
2023-02-22T00:43:58.047Z,66.16
2023-02-22T00:46:29.885Z,66.74
2023-02-22T00:49:04.525Z,66.30
2023-02-22T00:51:38.233Z,66.93
2023-02-22T00:54:21.091Z,67.03
2023-02-22T00:56:55.517Z,66.96
2023-02-22T00:59:28.177Z,66.65
2023-02-22T01:02:00.277Z,67.45
2023-02-22T01:04:41.555Z,67.28
2023-02-22T01:07:14.717Z,66.99
2023-02-22T01:09:49.625Z,67.32
2023-02-22T01:12:21.434Z,67.03
2023-02-22T01:14:57.307Z,67.48
2023-02-22T01:17:29.463Z,66.94
2023-02-22T01:20:01.539Z,68.24
2023-02-22T01:22:33.494Z,67.81
2023-02-22T01:25:09.011Z,67.75
2023-02-22T01:27:42.410Z,67.76
2023-02-22T01:30:16.805Z,68.18
2023-02-22T01:32:51.449Z,68.63
2023-02-22T01:35:26.286Z,69.33
2023-02-22T01:37:58.396Z,69.90
2023-02-22T01:40:36.283Z,69.80
2023-02-22T01:43:18.725Z,69.96
2023-02-22T01:45:58.484Z,71.18
2023-02-22T01:48:37.231Z,71.58
2023-02-22T01:51:14.947Z,72.26
2023-02-22T01:53:53.634Z,72.58
2023-02-22T01:56:30.978Z,73.75
2023-02-22T01:59:07.237Z,74.06
2023-02-22T02:01:43.325Z,74.50
2023-02-22T02:04:18.703Z,74.92
2023-02-22T02:06:51.818Z,75.02
2023-02-22T02:09:32.027Z,75.43
2023-02-22T02:12:08.509Z,75.39
2023-02-22T02:14:41.260Z,75.16
2023-02-22T02:17:16.554Z,75.54
2023-02-22T02:19:55.718Z,75.47
2023-02-22T02:22:45.810Z,75.24
2023-02-22T02:25:53.069Z,75.19
2023-02-22T02:29:04.750Z,75.43
2023-02-22T02:32:13.420Z,75.58
2023-02-22T02:34:58.843Z,74.87
2023-02-22T02:37:40.611Z,74.61
2023-02-22T02:40:24.100Z,74.89
2023-02-22T02:43:04.013Z,75.23
2023-02-22T02:45:42.369Z,75.16
2023-02-22T02:48:17.733Z,75.79
2023-02-22T02:50:53.851Z,75.91
2023-02-22T02:53:36.429Z,75.47
2023-02-22T02:56:09.103Z,75.85
2023-02-22T02:58:53.382Z,75.85
2023-02-22T03:01:48.437Z,76.05
2023-02-22T03:04:47.513Z,76.08
2023-02-22T03:07:43.593Z,76.70
2023-02-22T03:10:42.112Z,77.97
2023-02-22T03:13:22.967Z,77.74
2023-02-22T03:16:05.417Z,77.50
2023-02-22T03:18:48.102Z,77.26
2023-02-22T03:21:27.904Z,77.62
2023-02-22T03:24:21.794Z,77.61
2023-02-22T03:27:00.426Z,77.01
2023-02-22T03:29:37.627Z,77.98
2023-02-22T03:32:15.468Z,77.58
2023-02-22T03:34:50.999Z,78.15
2023-02-22T03:37:36.264Z,78.33
2023-02-22T03:40:27.007Z,78.24
2023-02-22T03:43:41.586Z,79.67
2023-02-22T03:46:23.351Z,80.78
2023-02-22T03:49:03.461Z,79.84
2023-02-22T03:51:35.926Z,79.15
2023-02-22T03:54:17.136Z,81.45
2023-02-22T03:57:01.931Z,81.37
2023-02-22T03:59:34.092Z,81.88
2023-02-22T04:02:06.176Z,81.40
2023-02-22T04:04:52.377Z,82.09
2023-02-22T04:07:39.925Z,81.46
2023-02-22T04:10:12.720Z,81.93
2023-02-22T04:12:47.467Z,81.39
2023-02-22T04:15:54.530Z,81.57
2023-02-22T04:18:24.386Z,81.07
2023-02-22T04:20:56.606Z,81.45
2023-02-22T04:23:28.933Z,81.79
2023-02-22T04:26:01.331Z,81.57
2023-02-22T04:28:36.008Z,82.26
2023-02-22T04:31:08.917Z,82.40
2023-02-22T04:33:40.996Z,82.04
2023-02-22T04:36:16.382Z,82.00
2023-02-22T04:38:48.533Z,82.37
2023-02-22T04:41:23.872Z,82.06
2023-02-22T04:43:59.796Z,81.56
2023-02-22T04:46:32.139Z,81.51
2023-02-22T04:49:04.465Z,81.39
2023-02-22T04:51:37.127Z,81.69
2023-02-22T04:54:09.336Z,81.61
2023-02-22T04:56:41.934Z,81.63
2023-02-22T04:59:16.696Z,82.40
2023-02-22T05:01:49.336Z,82.56
2023-02-22T05:04:45.562Z,83.36
2023-02-22T05:07:18.443Z,83.99
2023-02-22T05:09:50.420Z,83.70
2023-02-22T05:12:22.849Z,83.17
2023-02-22T05:14:57.502Z,83.56
2023-02-22T05:17:29.844Z,83.74
2023-02-22T05:20:02.201Z,84.14
2023-02-22T05:22:34.681Z,83.80
2023-02-22T05:25:07.492Z,83.09
2023-02-22T05:27:39.891Z,82.58
2023-02-22T05:30:16.839Z,82.64
2023-02-22T05:32:49.752Z,83.37
2023-02-22T05:35:22.536Z,83.10
2023-02-22T05:37:55.453Z,83.26
2023-02-22T05:40:29.815Z,81.72
2023-02-22T05:43:03.257Z,82.41
2023-02-22T05:45:37.756Z,82.65
2023-02-22T05:48:09.878Z,82.40
2023-02-22T05:50:41.796Z,81.83
2023-02-22T05:53:14.207Z,81.16
2023-02-22T05:55:46.632Z,82.45
2023-02-22T05:58:19.309Z,81.65
2023-02-22T06:00:53.875Z,81.96
2023-02-22T06:03:26.096Z,81.33
2023-02-22T06:05:58.298Z,80.89
2023-02-22T06:08:30.572Z,80.61
2023-02-22T06:11:30.552Z,80.73
2023-02-22T06:14:02.820Z,81.32
2023-02-22T06:16:37.709Z,81.78
2023-02-22T06:19:09.903Z,81.25
2023-02-22T06:21:42.392Z,81.78
2023-02-22T06:24:14.630Z,81.55
2023-02-22T06:26:46.603Z,80.98
2023-02-22T06:29:18.985Z,80.87
2023-02-22T06:31:54.299Z,79.31
2023-02-22T06:34:26.389Z,79.55
2023-02-22T06:36:59.994Z,80.12
2023-02-22T06:39:32.384Z,79.74
2023-02-22T06:42:04.771Z,78.95
2023-02-22T06:44:37.153Z,78.65
2023-02-22T06:47:11.757Z,78.42
2023-02-22T06:49:44.010Z,78.57
2023-02-22T06:52:15.811Z,77.53
2023-02-22T06:54:47.999Z,77.87
2023-02-22T06:57:20.793Z,78.03
2023-02-22T06:59:52.958Z,77.38
2023-02-22T07:02:33.008Z,78.00
2023-02-22T07:05:18.547Z,79.14
2023-02-22T07:07:52.708Z,78.03
2023-02-22T07:10:31.320Z,77.83
2023-02-22T07:13:03.719Z,77.46
2023-02-22T07:15:37.036Z,78.21
2023-02-22T07:18:12.333Z,76.88
2023-02-22T07:20:44.450Z,75.93
2023-02-22T07:23:18.334Z,74.94
2023-02-22T07:25:50.335Z,74.92
2023-02-22T07:28:22.236Z,75.24
2023-02-22T07:30:54.658Z,74.41
2023-02-22T07:33:29.230Z,74.76
2023-02-22T07:36:01.816Z,75.27
2023-02-22T07:38:34.154Z,75.42
2023-02-22T07:41:06.739Z,76.08
2023-02-22T07:43:39.229Z,75.98
2023-02-22T07:46:11.735Z,75.75
2023-02-22T07:48:46.871Z,75.55
2023-02-22T07:51:21.195Z,74.70
2023-02-22T07:53:53.340Z,75.24
2023-02-22T07:56:25.573Z,75.37
2023-02-22T07:58:57.523Z,75.27
2023-02-22T08:01:29.835Z,75.56
2023-02-22T08:04:04.677Z,74.08
2023-02-22T08:06:37.191Z,74.69
2023-02-22T08:09:09.614Z,75.19
2023-02-22T08:11:42.316Z,74.68
2023-02-22T08:14:14.711Z,73.91
2023-02-22T08:16:47.490Z,73.77
2023-02-22T08:19:23.263Z,73.85
2023-02-22T08:21:56.112Z,74.95
2023-02-22T08:24:28.484Z,73.98
2023-02-22T08:27:01.113Z,73.43
2023-02-22T08:29:34.711Z,73.49
2023-02-22T08:32:08.269Z,73.34
2023-02-22T08:34:43.838Z,72.82
2023-02-22T08:37:17.115Z,73.04
2023-02-22T08:39:50.192Z,73.03
2023-02-22T08:42:23.255Z,72.90
2023-02-22T08:44:56.376Z,72.57
2023-02-22T08:47:30.182Z,71.72
2023-02-22T08:50:05.537Z,70.92
2023-02-22T08:52:38.688Z,71.27
2023-02-22T08:55:12.172Z,71.54
2023-02-22T08:57:45.531Z,71.75
2023-02-22T09:00:20.267Z,70.38
2023-02-22T09:02:54.099Z,71.58
2023-02-22T09:05:31.320Z,72.02
2023-02-22T09:08:05.457Z,71.27
2023-02-22T09:10:41.132Z,71.08
2023-02-22T09:13:14.607Z,71.38
2023-02-22T09:15:46.889Z,70.20
2023-02-22T09:18:21.492Z,69.37
2023-02-22T09:20:56.647Z,68.36
2023-02-22T09:23:30.289Z,68.64
2023-02-22T09:26:02.925Z,68.44
2023-02-22T09:28:35.525Z,67.90
2023-02-22T09:31:08.084Z,67.45
2023-02-22T09:33:40.811Z,67.04
2023-02-22T09:36:16.159Z,67.03
2023-02-22T09:38:49.006Z,67.02
2023-02-22T09:41:35.214Z,65.68
2023-02-22T09:44:20.203Z,66.58
2023-02-22T09:46:56.530Z,65.64
2023-02-22T09:49:38.239Z,63.54
2023-02-22T09:52:22.125Z,65.07
2023-02-22T09:55:05.547Z,63.66
2023-02-22T09:57:42.993Z,63.70
2023-02-22T10:00:21.583Z,62.72
2023-02-22T10:03:04.374Z,63.27
2023-02-22T10:05:44.142Z,62.67
2023-02-22T10:11:28.971Z,61.50
2023-02-22T10:14:09.897Z,61.19
2023-02-22T10:16:53.761Z,61.49
2023-02-22T10:19:35.848Z,61.20
2023-02-22T10:22:30.770Z,60.55
2023-02-22T10:25:09.798Z,59.93
2023-02-22T10:27:46.566Z,59.91
2023-02-22T10:30:25.738Z,60.10
2023-02-22T10:33:05.748Z,60.68
2023-02-22T10:35:41.536Z,61.18
2023-02-22T10:38:23.929Z,61.46
2023-02-22T10:41:04.207Z,61.07
2023-02-22T10:43:36.799Z,61.75
2023-02-22T10:46:12.807Z,61.86
2023-02-22T10:48:48.324Z,61.85
2023-02-22T10:51:34.205Z,60.56
2023-02-22T10:54:27.249Z,61.62
2023-02-22T10:57:04.521Z,62.79
2023-02-22T10:59:38.842Z,61.26
2023-02-22T11:02:21.800Z,61.08
2023-02-22T11:04:57.460Z,60.15
2023-02-22T11:07:32.218Z,60.21
2023-02-22T11:10:08.559Z,60.98
2023-02-22T11:12:48.247Z,61.06
2023-02-22T11:15:32.319Z,61.21
2023-02-22T11:18:07.511Z,60.76
2023-02-22T11:20:43.358Z,61.05
2023-02-22T11:23:15.940Z,60.75
2023-02-22T11:25:48.564Z,60.67
2023-02-22T11:28:33.207Z,61.20
2023-02-22T11:31:19.824Z,62.32
2023-02-22T11:33:58.479Z,61.18
2023-02-22T11:36:41.404Z,61.01
2023-02-22T11:39:28.474Z,60.94
2023-02-22T11:42:01.602Z,60.86
2023-02-22T11:44:37.279Z,60.71
2023-02-22T11:47:15.755Z,60.86
2023-02-22T11:49:49.562Z,60.57
2023-02-22T11:52:28.729Z,60.67
2023-02-22T11:55:13.115Z,60.15
2023-02-22T11:57:57.514Z,60.01
2023-02-22T12:00:43.836Z,60.89
2023-02-22T12:03:42.529Z,59.25
2023-02-22T12:06:25.773Z,58.63
2023-02-22T12:09:10.549Z,58.59
2023-02-22T12:11:55.374Z,57.92
2023-02-22T12:14:38.437Z,58.12
2023-02-22T12:17:35.516Z,58.42
2023-02-22T12:20:21.927Z,58.65
2023-02-22T12:23:10.192Z,57.72
2023-02-22T12:25:50.999Z,57.95
2023-02-22T12:28:28.199Z,57.33
2023-02-22T12:31:17.865Z,57.24
2023-02-22T12:34:13.265Z,57.10
2023-02-22T12:36:52.276Z,58.32
2023-02-22T12:39:52.224Z,58.07
2023-02-22T12:42:33.285Z,58.49
2023-02-22T12:45:11.772Z,57.86
2023-02-22T12:48:05.648Z,57.78
2023-02-22T12:50:50.160Z,58.71
2023-02-22T12:53:29.204Z,58.88
2023-02-22T12:59:30.044Z,58.67
2023-02-22T13:02:15.049Z,57.69
2023-02-22T13:04:47.971Z,57.78
2023-02-22T13:07:43.606Z,57.87
2023-02-22T13:10:38.845Z,58.96
2023-02-22T13:13:23.028Z,58.56
2023-02-22T13:16:04.489Z,58.25
2023-02-22T13:18:43.131Z,58.71
2023-02-22T13:21:24.053Z,58.97
2023-02-22T13:24:06.933Z,58.59
2023-02-22T13:26:48.728Z,58.86
2023-02-22T13:29:32.009Z,58.35
2023-02-22T13:32:17.323Z,58.86
2023-02-22T13:35:01.491Z,58.84
2023-02-22T13:37:50.489Z,59.90
2023-02-22T13:40:47.246Z,58.37
2023-02-22T13:43:52.164Z,59.18
2023-02-22T13:46:59.544Z,60.07
2023-02-22T13:49:50.746Z,59.86
2023-02-22T13:52:25.507Z,59.61
2023-02-22T13:55:01.762Z,59.69
2023-02-22T13:57:41.064Z,60.71
2023-02-22T14:00:43.283Z,60.16
2023-02-22T14:03:36.671Z,60.11
2023-02-22T14:06:10.181Z,59.79
2023-02-22T14:08:43.445Z,60.32
2023-02-22T14:11:43.926Z,59.48
2023-02-22T14:14:20.702Z,59.58
2023-02-22T14:17:27.589Z,59.43
2023-02-22T14:20:30.443Z,59.22
2023-02-22T14:23:37.320Z,59.61
2023-02-22T14:26:20.527Z,59.51
2023-02-22T14:28:57.744Z,59.52
2023-02-22T14:31:37.648Z,59.47
2023-02-22T14:34:16.441Z,59.50
2023-02-22T14:36:55.105Z,60.08
2023-02-22T14:39:37.896Z,59.54
2023-02-22T14:42:15.989Z,60.12
2023-02-22T14:44:57.678Z,60.05
2023-02-22T14:47:40.059Z,60.72
2023-02-22T14:50:23.437Z,60.75
2023-02-22T14:53:04.466Z,60.03
2023-02-22T14:55:42.149Z,60.02
2023-02-22T14:58:21.892Z,59.84
2023-02-22T15:00:57.215Z,60.29
2023-02-22T15:03:40.043Z,61.09
2023-02-22T15:09:30.224Z,60.68
2023-02-22T15:12:18.684Z,60.59
2023-02-22T15:14:52.017Z,60.59
2023-02-22T15:17:27.848Z,60.95
2023-02-22T15:20:02.263Z,61.45
2023-02-22T15:22:40.036Z,62.13
2023-02-22T15:25:15.243Z,62.87
2023-02-22T15:27:50.284Z,62.08
2023-02-22T15:30:30.091Z,62.42
2023-02-22T15:33:15.399Z,62.75
2023-02-22T15:35:57.050Z,63.41
2023-02-22T15:38:32.621Z,63.10
2023-02-22T15:41:08.868Z,63.33
2023-02-22T15:43:41.338Z,63.99
2023-02-22T15:46:16.461Z,63.63
2023-02-22T15:49:07.066Z,63.62
2023-02-22T15:51:46.779Z,63.23
2023-02-22T15:54:27.174Z,63.84
2023-02-22T15:57:00.369Z,65.48
2023-02-22T15:59:35.319Z,64.93
2023-02-22T16:02:08.545Z,64.78
2023-02-22T16:04:45.912Z,64.66
2023-02-22T16:07:24.417Z,65.45
2023-02-22T16:09:56.341Z,65.17
2023-02-22T16:12:31.027Z,64.64
2023-02-22T16:15:03.217Z,65.23
2023-02-22T16:17:56.050Z,65.40
2023-02-22T16:20:39.050Z,65.75
2023-02-22T16:23:29.132Z,65.86
2023-02-22T16:26:23.602Z,65.15
2023-02-22T16:28:58.331Z,65.87
2023-02-22T16:31:34.164Z,66.10
2023-02-22T16:34:06.921Z,65.80
2023-02-22T16:36:45.376Z,66.83
2023-02-22T16:39:25.289Z,67.18
2023-02-22T16:41:59.804Z,67.12
2023-02-22T16:44:31.617Z,67.30
2023-02-22T16:47:03.740Z,67.35
2023-02-22T16:49:35.122Z,67.64
2023-02-22T16:52:10.605Z,68.07
2023-02-22T16:54:48.831Z,67.96
2023-02-22T16:57:23.954Z,67.30
2023-02-22T16:59:55.573Z,67.42
2023-02-22T17:02:28.133Z,67.60
2023-02-22T17:04:59.919Z,67.58
2023-02-22T17:07:33.024Z,66.49
2023-02-22T17:10:08.903Z,66.74
2023-02-22T17:12:44.301Z,67.27
2023-02-22T17:15:24.998Z,67.82
2023-02-22T17:17:59.943Z,67.87
2023-02-22T17:20:33.180Z,67.68
2023-02-22T17:23:08.597Z,68.01
2023-02-22T17:25:45.985Z,68.12
2023-02-22T17:28:19.225Z,68.65
2023-02-22T17:30:52.268Z,67.54
2023-02-22T17:33:28.157Z,67.37
2023-02-22T17:36:02.418Z,68.43
2023-02-22T17:38:35.752Z,68.72
2023-02-22T17:41:11.627Z,68.79
2023-02-22T17:43:43.956Z,68.66
2023-02-22T17:46:16.129Z,68.44
2023-02-22T17:48:49.219Z,68.39
2023-02-22T17:51:21.481Z,68.74
2023-02-22T17:53:55.606Z,68.19
2023-02-22T17:56:29.898Z,68.03
2023-02-22T17:59:02.057Z,69.07
2023-02-22T18:01:35.838Z,68.50
2023-02-22T18:04:08.305Z,68.19
2023-02-22T18:06:53.783Z,68.66
2023-02-22T18:09:26.604Z,68.65
2023-02-22T18:12:01.825Z,68.45
2023-02-22T18:14:34.469Z,68.30
2023-02-22T18:17:06.219Z,68.07
2023-02-22T18:19:38.336Z,67.56
2023-02-22T18:22:11.012Z,68.47
2023-02-22T18:24:43.256Z,68.03
2023-02-22T18:27:18.004Z,68.17
2023-02-22T18:29:50.317Z,69.18
2023-02-22T18:32:22.418Z,68.28
2023-02-22T18:34:55.035Z,68.51
2023-02-22T18:37:28.579Z,68.70
2023-02-22T18:40:02.047Z,68.71
2023-02-22T18:42:40.353Z,68.14
2023-02-22T18:45:14.526Z,69.01
2023-02-22T18:47:47.537Z,68.77
2023-02-22T18:50:19.686Z,68.64
2023-02-22T18:52:51.312Z,68.22
2023-02-22T18:55:24.419Z,68.37
2023-02-22T18:57:59.745Z,68.83
2023-02-22T19:00:31.830Z,68.44
2023-02-22T19:03:05.535Z,68.21
2023-02-22T19:05:39.166Z,68.11
2023-02-22T19:08:11.849Z,68.09
2023-02-22T19:10:44.168Z,68.08
2023-02-22T19:13:19.408Z,67.84
2023-02-22T19:15:51.780Z,68.13
2023-02-22T19:18:24.009Z,68.48
2023-02-22T19:21:00.187Z,68.17
2023-02-22T19:23:34.536Z,69.13
2023-02-22T19:26:09.684Z,69.06
2023-02-22T19:28:44.520Z,69.14
2023-02-22T19:31:18.586Z,68.93
2023-02-22T19:33:53.844Z,68.72
2023-02-22T19:36:26.479Z,68.91
2023-02-22T19:38:58.324Z,70.08
2023-02-22T19:41:30.679Z,69.78
2023-02-22T19:44:05.179Z,69.65
2023-02-22T19:46:38.072Z,70.52
2023-02-22T19:49:10.912Z,70.16
2023-02-22T19:51:43.153Z,70.09
2023-02-22T19:54:21.161Z,70.19
2023-02-22T19:56:54.824Z,70.27
2023-02-22T19:59:29.171Z,70.84
2023-02-22T20:02:03.002Z,70.42
2023-02-22T20:04:34.392Z,70.96
2023-02-22T20:07:06.587Z,70.90
2023-02-22T20:09:40.705Z,71.33
2023-02-22T20:12:12.454Z,70.82
2023-02-22T20:14:46.913Z,71.57
2023-02-22T20:17:18.706Z,71.34
2023-02-22T20:19:50.748Z,70.81
2023-02-22T20:22:22.698Z,71.39
2023-02-22T20:24:54.267Z,71.67
2023-02-22T20:27:27.486Z,71.48
2023-02-22T20:30:01.651Z,71.08
2023-02-22T20:32:36.013Z,71.30
2023-02-22T20:35:08.998Z,70.69
2023-02-22T20:37:42.749Z,71.15
2023-02-22T20:40:14.316Z,71.66
2023-02-22T20:42:47.951Z,72.11
2023-02-22T20:45:21.977Z,71.44
2023-02-22T20:47:54.959Z,71.45
2023-02-22T20:50:26.512Z,70.81
2023-02-22T20:52:59.205Z,71.04
2023-02-22T20:55:31.519Z,71.00
2023-02-22T20:58:03.809Z,70.83
2023-02-22T21:00:38.119Z,70.82
2023-02-22T21:03:10.319Z,70.28
2023-02-22T21:05:45.844Z,70.78
2023-02-22T21:08:18.666Z,70.26
2023-02-22T21:10:51.788Z,70.37
2023-02-22T21:13:24.926Z,70.99
2023-02-22T21:15:59.930Z,70.40
2023-02-22T21:18:32.313Z,70.35
2023-02-22T21:21:10.632Z,69.99
2023-02-22T21:23:44.547Z,69.87
2023-02-22T21:26:19.056Z,69.97
2023-02-22T21:28:51.922Z,69.91
2023-02-22T21:31:28.247Z,69.73
2023-02-22T21:34:02.614Z,69.44
2023-02-22T21:36:35.408Z,70.27
2023-02-22T21:39:18.470Z,69.51
2023-02-22T21:44:47.235Z,69.88
2023-02-22T21:47:22.299Z,70.09
2023-02-22T21:49:54.112Z,70.00
2023-02-22T21:52:26.774Z,69.75
2023-02-22T21:54:58.694Z,69.17
2023-02-22T21:57:32.430Z,69.79
2023-02-22T22:00:13.120Z,69.96
2023-02-22T22:02:49.302Z,69.47
2023-02-22T22:05:31.950Z,69.40
2023-02-22T22:08:05.863Z,70.35
2023-02-22T22:10:37.050Z,100.00
2023-02-22T22:13:09.233Z,100.00
2023-02-22T22:15:40.934Z,100.00
2023-02-22T22:18:18.434Z,100.00
2023-02-22T22:20:52.026Z,100.00
2023-02-22T22:23:26.688Z,100.00
2023-02-22T22:26:09.941Z,100.00
2023-02-22T22:28:46.364Z,100.00
2023-02-22T22:31:24.187Z,100.00
2023-02-22T22:34:00.570Z,100.00
2023-02-22T22:36:34.964Z,100.00
2023-02-22T22:39:14.621Z,100.00
2023-02-22T22:41:50.286Z,100.00
2023-02-22T22:44:22.628Z,100.00
2023-02-22T22:47:06.207Z,100.00
2023-02-22T22:49:43.105Z,100.00
2023-02-22T22:52:16.766Z,100.00
2023-02-22T22:54:50.925Z,100.00
2023-02-22T22:57:23.810Z,100.00
2023-02-22T22:59:56.289Z,100.00
2023-02-22T23:02:29.472Z,100.00
2023-02-22T23:05:13.153Z,100.00
2023-02-22T23:07:45.017Z,100.00
2023-02-22T23:10:17.138Z,100.00
2023-02-22T23:12:48.916Z,100.00
2023-02-22T23:15:21.288Z,100.00
2023-02-22T23:17:56.290Z,100.00
2023-02-22T23:20:31.022Z,100.00
2023-02-22T23:23:03.032Z,100.00
2023-02-22T23:25:35.261Z,100.00
2023-02-22T23:28:14.894Z,100.00
2023-02-22T23:30:47.263Z,100.00
2023-02-22T23:33:19.501Z,100.00
2023-02-22T23:35:54.388Z,100.00
2023-02-22T23:38:26.981Z,100.00
2023-02-22T23:40:59.463Z,100.00
2023-02-22T23:43:32.795Z,100.00
2023-02-22T23:46:11.029Z,100.00
2023-02-22T23:48:46.841Z,100.00
2023-02-22T23:51:25.825Z,100.00
2023-02-22T23:53:58.668Z,100.00
2023-02-22T23:56:31.299Z,100.00
2023-02-22T23:59:06.995Z,100.00
